RJOI/IWA METAR and TAF weather

Enter ICAO airport designator
Station Type Date Time Source
RJOI METAR 2019/04/22 17:55 UTC NOAA

RJOI 221755Z 00000KT 9999 FEW030 BKN200 17/13 A3000 RMK SLP158 T01670133 10200 20161 58003


Station Type Date Time Source
RJOI Decoded METAR 2019/04/22 17:55 UTC NOAA

MCAS IWAKUNI,JAPAN, JA, Japan (RJOI) 34-09N 132-14E 5M
Apr 22, 2019 - 01:55 PM EDT / 2019.04.22 1755 UTC
Wind: Calm:0
Visibility: greater than 7 mile(s):0
Sky conditions: mostly cloudy
Temperature: 62.1 F (16.7 C)
Dew Point: 55.9 F (13.3 C)
Relative Humidity: 80%
Pressure (altimeter): 30 in. Hg (1015 hPa)
Pressure tendency: 0.01 inches (0.3 hPa) lower than three hours ago
ob: RJOI 221755Z 00000KT 9999 FEW030 BKN200 17/13 A3000 RMK SLP158 T01670133 10200 20161 58003
cycle: 18

Station Type Date Time Source
RJOI TAF 2019/04/22 13:03 UTC NOAA

TAF TAF RJOI 2213/2313 VRB05KT 9999 FEW030 QNH2993INS
FM222300 02008KT 9999 FEW030 SCT200 QNH3005INS
FM231300 VRB04KT 9999 -SHRA BKN030 BKN100 QNH2997INS T17/2221Z T24/2306Z

Example: see airport list